Kezdőlap
METAR-TAF:

METAR-TAF

Repülőterek :

Sligo, Írország

földrajzi szélesség: 54-16-49N, földrajzi hosszúság: 8-35-57W, magasság: 3 m

Jelenlegi meteorológiai megfigyelések

A jelentés 16 perccel ezelõtt készült, 18:30 UTC
Északnyugati szél 10 kt
Hőmérséklet 10°C
Páratartalom 100%
Légköri nyomás 1026 hPa
Látótávolság 10 km, vagy több
felhőtlen 1500 m magasságban, és nincs gomolyfelhõ

METAR: EISG 191830Z 31010KT CAVOK 10/10 Q1026

Idő: 19:46 (18:46 UTC)

Előrejelzés

A jelentés 1 órával és 46 perccel ezelõtt készült, 17:00 UTC
Az előrejelzés 19-én 18 óra UTC és 20-én 03 óra UTC között érvényes
Északnyugati szél 11 kt
Látótávolság 10 km, vagy több
Kevés felhő 3500 lábon
19-én 19 óra UTC és 19-én 21 óra UTC között fokozatosan kialakuló
Különbözõ irányokból fújó szél 3 kt

TAF: EISG 191700Z 1918/2003 31011KT 9999 FEW035 BECMG 1919/1921 VRB03KT

Meteorológiai megfigyelések és előrejelzések több, mint 4000 repülőtéren (METAR és TAF jelentéseket).

A térképen piros és sárga pontok jelzik az elérhető meteorológiai állomásokat.

Mozgassa az egeret a pont fölött, hogy megjelenjen az állomás neve.

Azután kattintson az időjárási megfigyelések és előrejelzések megtekintéséhez.

A térkép megváltoztatása: kattintson a fekete keresztel jelölt zöld gombra ráközelítéshez, a vonallal jelölt zöld gombra távolításhoz, vagy a zöld nyilakra a szomszédos térképek eléréséhez.


METAR-TAF: